默认 日期 大小 文件数 浏览量 最新下载 xml
oh oh磁力链接相关资源由用户搜索指令自动获取,结果来源于网络,本站不存储任何资料,亦不承担任何责任,请于24小时内删除,搜索到13792个磁力,显示前4000条数据,用时5ms。
    {"Setup.exe": 3646043, "REVOLT.nfo": 11246, "Setup-1.bin": 763392944}
创建时间: 2018-11-12 04:52:57 大小:731.52 MB 文件数量:3 热度:6 最近下载:2024-08-10 00:08:02
    ... SBD Odeon Concert Club Cleveland oh.txt": 1283}
创建时间: 2018-11-12 04:54:58 大小:637.52 MB 文件数量:15 热度:16 最近下载:2025-08-01 22:40:04
    ... , "Home.Adventures.with.Tip.&.Oh.S02E04.Garbage.Day.1080p.NF ... , "Home.Adventures.with.Tip.&.Oh.S02E13.Scared.Crazy.1080p.NF ... , "Home.Adventures.with.Tip.&.Oh.S02E02.Lords.and.Lazers.1080p ... , "Home.Adventures.with.Tip.&.Oh.S02E05.Very.Foreign.Exchange.Student ...
创建时间: 2018-11-12 06:09:00 大小:10.67 GB 文件数量:14 热度:8 最近下载:2025-01-28 21:25:02
    ... mkv": 653084120, "[AniMaunt] Yu-Gi-Oh! VRAINS - 02 [TV] [HDTVRip ... mkv": 1004657808, "[AniMaunt] Yu-Gi-Oh! VRAINS - 03 [TV] [HDTVRip ... mkv": 532699743, "[AniMaunt] Yu-Gi-Oh! VRAINS - 04 [TV] [HDTVRip ... mkv": 683317026, "[AniMaunt] Yu-Gi-Oh! VRAINS - 05 [TV] [ ...
创建时间: 2018-11-12 06:35:02 大小:29.25 GB 文件数量:70 热度:11 最近下载:2025-01-22 18:43:03
    ... ": 353754897, "[DragsterPS] Yu-Gi-Oh! S02E02 [480p] [Multi-Audio ... ": 388575466, "[DragsterPS] Yu-Gi-Oh! S02E03 [480p] [Multi-Audio ... ": 368731394, "[DragsterPS] Yu-Gi-Oh! S02E04 [480p] [Multi-Audio ... ": 382104028, "[DragsterPS] Yu-Gi-Oh! S02E05 [480p] [Multi-Audio ...
创建时间: 2018-11-12 08:41:41 大小:17.54 GB 文件数量:48 热度:10 最近下载:2024-08-31 21:21:01
    {"cover.jpg": 451151, "11. Wavves - Leave.mp3": 7836037, "05. Phantogram - K.Y.S.A.mp3": 10439930, "06. Vybz Kartel - Fast Life.mp3": 8415965, "13. Little Dragon - Wanderer.mp3": 11047019, "12. Currensy & Freddie Gibbs - Fetti.mp3": 11176594, "02. Ab-Soul ...
创建时间: 2018-11-12 10:01:58 大小:126.3 MB 文件数量:15 热度:11 最近下载:2025-07-29 11:09:04
    {"cover.jpg": 246686, "04. Solara.mp3": 9705084, "03. Travels.mp3": 11205590, "05. Alienation.mp3": 10051712, "06. Marchin' On.mp3": 5875018, "07. With Sympathy.mp3": 7241205, "01. Knights of Malta.mp3": 9601954, "02. Silvery Sometimes (Ghosts).mp3": ...
创建时间: 2018-11-12 11:19:41 大小:63.93 MB 文件数量:9 热度:15 最近下载:2025-10-02 16:25:03
    {"03LLAGAOHESP.rar": 809318164, "www.consolasfull.com.url": 127, "www.minijuegosfull.com.url": 129, "www.juegosparawindows.com.url": 132, "Informacion Importante!!!!.txt": 765}
创建时间: 2018-11-12 15:09:10 大小:771.83 MB 文件数量:5 热度:10 最近下载:2025-02-15 15:46:03
    ... -Size) (CD).png": 1885102, "01 - Oh, Pretty Woman.flac": 32978411, "Back ...
创建时间: 2018-11-12 16:37:27 大小:82.51 MB 文件数量:12 热度:7 最近下载:2025-03-20 16:26:01
    ... , "Home.Adventures.with.Tip.and.Oh.S02E13.WEB.x264-CRiMSON.mkv ... , "home.adventures.with.tip.and.oh.s02e13.web.x264-crimson.nfo ...
创建时间: 2018-11-12 16:53:56 大小:256.65 MB 文件数量:7 热度:7 最近下载:2025-02-20 21:07:01
    {"RARBG.txt": 30, "fallinlovia.16.12.25.oh.christmas.tease.mp4": 51288241, "fallinlovia.16.12.25.oh.christmas.tease.nfo": 5191}
创建时间: 2018-11-12 17:08:30 大小:48.92 MB 文件数量:3 热度:13 最近下载:2025-08-03 00:34:02
    ... .webm": 44272488, "20140509 hfCGijEYMLo Oh JK Rowling - Kinetic Typography.en ... .json": 32983, "20140509 hfCGijEYMLo Oh JK Rowling - Kinetic Typography.description ... ": 1602, "20140509 hfCGijEYMLo Oh JK Rowling - Kinetic Typography.annotations ...
创建时间: 2018-11-12 18:50:49 大小:42.28 MB 文件数量:6 热度:5 最近下载:2023-04-14 08:10:04
    {"(2012) Oh Laura - The Mess We Left ... ": 7060798}, "cover.jpg": 84868}, "[2007] Oh Laura - A Song Inside My ...
创建时间: 2018-11-12 19:38:58 大小:253.63 MB 文件数量:34 热度:6 最近下载:2023-04-14 08:50:03
    ... ": 388320146, "[DragsterPS] Yu-Gi-Oh! S01E02 [480p] [Multi-Audio ... ": 417331526, "[DragsterPS] Yu-Gi-Oh! S01E03 [480p] [Multi-Audio ... ": 372718277, "[DragsterPS] Yu-Gi-Oh! S01E04 [480p] [Multi-Audio ... ": 437320390, "[DragsterPS] Yu-Gi-Oh! S01E05 [480p] [Multi-Audio ...
创建时间: 2018-11-12 21:44:51 大小:17.57 GB 文件数量:49 热度:9 最近下载:2025-06-14 22:10:01
    {"Sample": {"gua-yugiohdarkdimension-sd-sample.mkv": 9943202}, "gua-yugiohdarkdimension-sd.mkv": 1547957974, "gua-yugiohdarkdimension-sd.nfo": 725}
创建时间: 2018-11-12 22:01:52 大小:1.45 GB 文件数量:3 热度:9 最近下载:2024-10-02 19:31:02
    ... November 12th - Brotherhood Clue Point Oh!.webm": 8768181, "20071112 3Ci0kkHXbnM November ... 12th - Brotherhood Clue Point Oh!.info.json": 22160, "20071112 ... November 12th - Brotherhood Clue Point Oh!.description": 1103, "20071112 3Ci0kkHXbnM November ...
创建时间: 2018-11-12 22:14:08 大小:8.41 MB 文件数量:5 热度:9 最近下载:2025-08-25 03:40:02
    {"RARBG.txt": 30, "Sharknado.3.Oh.Hell.No.2015.BRRip.XviD.MP3-XVID.avi": 1206233066}
创建时间: 2018-11-12 22:32:28 大小:1.12 GB 文件数量:2 热度:5 最近下载:2023-04-14 09:40:08
    {"1984 11 14.txt": 869, "19841114 - Cleveland- 02 Intros.flac": 8910086, "19841114 - Cleveland- 11 Nig Biz.flac": 33103699, "19841114 - Cleveland- 07 Mudd Club.flac": 27566521, "19841114 - Cleveland- 24 Stinkfoot.flac": 31456275, "19841114 - Cleveland- 12 ...
创建时间: 2018-11-12 23:49:58 大小:725.58 MB 文件数量:27 热度:7 最近下载:2025-01-06 09:45:03
    ... 4).avi": 183446158}, "Yu-Gi-Oh (Season 2) 50-79": ... 1.avi": 81285120}, "Yu-Gi-Oh (Season 3) 80-200": ... free DDLs] 3x093 Yu-Gi-Oh! - A Duel With Destiny ( ... free DDLs] 3x094 Yu-Gi-Oh! - A Duel With Destiny ( ... .avi": 187733014}, "Yu-Gi-Oh (Season 3) 201-224 final ...
创建时间: 2018-11-13 00:22:09 大小:37.11 GB 文件数量:222 热度:29 最近下载:2025-08-09 10:04:02
    {"CD1": {"07 - Mounam Paesum (From Amarakaaviyam).flac": 33663779, "04 - Atthuvaana Kaatukku (From Idam Porul Yaeval).flac": 28433053, "12 - Nagarudhe Nagarudhe (From Vandhaan Vendraan).flac": 27584413, "05 - Naetru Naan (From Jeeva) (feat. Sathya Prakash ...
创建时间: 2018-11-13 00:50:36 大小:1004.56 MB 文件数量:35 热度:7 最近下载:2025-08-13 16:52:02